Time;durP1;ratioP1;P1;durP2;ratioP2;P2;SDS_P1;SDS_P2;PMS_P1;PMS_P2;Temp;Humidity;BMP_temperature;BMP_pressure;BME280_temperature;BME280_humidity;BME280_pressure;Samples;Min_cycle;Max_cycle;Signal;HPM_P1;HPM_P2
2019/05/14 17:26:54;;;;;;;3.2;1.2;;;;;;;24.67;31.79004;967.1496;;;;
2019/05/14 17:31:34;;;;;;;4.3;1.3;;;;;;;25.65;30.89063;967.1467;;;;
2019/05/14 17:33:59;;;;;;;7.6;1.3;;;;;;;25.71;32.06738;967.2631;;;;
2019/05/14 17:36:26;;;;;;;7.9;1.3;;;;;;;25.92;30.62109;967.2333;;;;
2019/05/14 17:38:50;;;;;;;6.8;1.2;;;;;;;25.82;31.7041;967.1917;;;;
2019/05/14 17:41:18;;;;;;;10.1;1.4;;;;;;;25.78;33.30664;967.188;;;;
2019/05/14 17:43:40;;;;;;;9.7;1.5;;;;;;;25.01;33.87109;967.158;;;;
2019/05/14 17:48:10;;;;;;;6.1;1.5;;;;;;;28.93;28.28223;967.1617;;;;
2019/05/14 17:50:35;;;;;;;6.3;1.4;;;;;;;26.09;31.43652;967.1213;;;;
2019/05/14 17:53:02;;;;;;;5.8;1.3;;;;;;;26.32;33.39355;967.2606;;;;
2019/05/14 18:05:15;;;;;;;6.6;1.5;;;;;;;25.64;32.84082;967.3015;;;;
2019/05/14 18:07:46;;;;;;;4.8;1.5;;;;;;;25.64;33.05664;967.3502;;;;
2019/05/14 18:10:08;;;;;;;5.1;1.3;;;;;;;26.07;32.28516;967.3935;;;;
2019/05/14 18:12:33;;;;;;;5.5;1.4;;;;;;;25.56;33.79297;967.3864;;;;
2019/05/14 18:14:59;;;;;;;8.1;1.1;;;;;;;25.79;33.72656;967.3541;;;;
2019/05/14 18:17:24;;;;;;;9.9;1.4;;;;;;;25.57;34.46387;967.3434;;;;
2019/05/14 18:19:49;;;;;;;10.2;1.5;;;;;;;25.27;34.21289;967.3391;;;;
2019/05/14 18:22:14;;;;;;;12.8;1.6;;;;;;;25.07;35.76465;967.4095;;;;
2019/05/14 18:24:44;;;;;;;8.1;1.5;;;;;;;25.04;35.17578;967.3688;;;;
2019/05/14 18:27:08;;;;;;;6.4;1.4;;;;;;;24.95;36.25684;967.438;;;;
2019/05/14 18:29:33;;;;;;;8.3;1.7;;;;;;;24.86;37.89941;967.4077;;;;
2019/05/14 18:32:01;;;;;;;10.5;1.5;;;;;;;24.91;36.43359;967.4266;;;;
2019/05/14 18:34:26;;;;;;;10.8;2.1;;;;;;;24.93;36.12402;967.4127;;;;
2019/05/14 18:36:51;;;;;;;13.6;2.3;;;;;;;25.02;35.65332;967.4805;;;;
2019/05/14 18:39:16;;;;;;;11.7;2.9;;;;;;;25.06;35.9668;967.4916;;;;
2019/05/14 18:41:43;;;;;;;14.6;3.8;;;;;;;25.45;35.91406;967.5581;;;;
2019/05/14 18:44:08;;;;;;;11.2;3;;;;;;;25.9;34.36914;967.5623;;;;
2019/05/14 18:46:34;;;;;;;15.7;4.9;;;;;;;25.78;34.81543;967.5361;;;;
2019/05/14 18:49:01;;;;;;;12.8;3.2;;;;;;;25.75;34.47754;967.5991;;;;
2019/05/14 18:51:26;;;;;;;14.6;4;;;;;;;25.71;35.83984;967.5745;;;;
2019/05/14 18:53:51;;;;;;;12.2;3.6;;;;;;;26;33.68262;967.557;;;;
2019/05/14 18:56:35;;;;;;;13.7;3.7;;;;;;;26.11;32.93555;967.6279;;;;
2019/05/14 18:59:00;;;;;;;11.3;3.8;;;;;;;25.94;34.14551;967.5872;;;;
2019/05/14 19:01:25;;;;;;;11.7;3.6;;;;;;;25.81;34.12305;967.6006;;;;
2019/05/14 19:03:50;;;;;;;15.5;3.5;;;;;;;25.79;33.83398;967.587;;;;
2019/05/14 19:06:23;;;;;;;14;3.4;;;;;;;25.83;34.6875;967.5145;;;;
2019/05/14 19:08:52;;;;;;;13.4;3.3;;;;;;;25.9;34.76465;967.5212;;;;
2019/05/14 19:11:17;;;;;;;10.9;3.2;;;;;;;25.84;34.68848;967.5377;;;;
2019/05/14 19:13:42;;;;;;;12.4;3;;;;;;;25.7;35.69531;967.5666;;;;
2019/05/14 19:16:50;;;;;;;12.4;3.1;;;;;;;25.77;35.4375;967.5148;;;;
2019/05/14 19:19:19;;;;;;;13.5;2.7;;;;;;;25.66;35.70313;967.575;;;;
2019/05/14 19:21:44;;;;;;;14.5;3.1;;;;;;;26.14;36.31738;967.5745;;;;
